Swan Hill, Australia
Current Conditions -  °F | °C
As of 1:00 PM on Tuesday 23 Dec 2014 (Local Time) from YMIA Reporting Station
Clear Clear  
Wind Chill: 86°   Ceiling: Unl
Heat Index: 86°   Visibility: 6mi
Dew Point: 55°   Wind: 12mph
Humidity: 35%   Direction: 220°SW
Pressure: 29.8"   Gusts: NA
Location:  35.34°S, 143.56°E
Report Text: YMIA 230200Z 22010KT 190V250 CAVOK 30/13 Q1009
Loading
Personal Weather Stations






























Interactive Weather Map New forecast layout! Learn more

10-Day Weather Forecast

Advertisements
Track Severe Weather on mobile